Oklahoma City, OK (73101)

10:19 AM CST on December 06, 2016 (GMT -0600)
Crestwood | | Change Station

Elev 1257 ft 35.49 °N, 97.56 °W | Updated 11 seconds ago

Mostly Cloudy
Mostly Cloudy
37.4 °F
Feels Like 37 °F
N
0.4
Wind Variable Wind from ENE
Gusts 2.5 mph

Today
High -- | Low -- °F
--% Chance of Precip.
Yesterday
High -- | Low -- °F
Precip. -- in
Pressure 30.09 in
Visibility 10.0 miles
Clouds Few 18000 ft
Scattered Clouds 22000 ft
Mostly Cloudy 25000 ft
Windchill 37 °F
Dew Point 2 °F
Humidity 22%
Rainfall 0.00 in
Snow Depth Not available.
7:25 AM 5:17 PM
Waxing Crescent, 43% visible
METAR KOKC 061552Z 01019G26KT 10SM FEW180 SCT220 BKN250 03/M05 A3007 RMK AO2 PK WND 01028/1512 SLP188 T00331050
Pressure 30.09 in
Visibility 10.0 miles
Clouds Few 18000 ft
Scattered Clouds 22000 ft
Mostly Cloudy 25000 ft
Windchill 37 °F
Dew Point 2 °F
Humidity 22%
Rainfall 0.00 in
Snow Depth Not available.
7:25 AM 5:17 PM
Waxing Crescent, 43% visible
METAR KOKC 061552Z 01019G26KT 10SM FEW180 SCT220 BKN250 03/M05 A3007 RMK AO2 PK WND 01028/1512 SLP188 T00331050

10-Day Weather Forecast

Almanac

Astronomy

Dec. 06, 2016 Rise Set
Actual Time
Civil Twilight
Nautical Twilight
Astronomical Twilight
Moon
Length of Visible Light
Length of Day
Tomorrow will be .
, % of the Moon is Illuminated

Today's Extremes

State Highs State Lows

Community

WunderPhotos

Upload Photos

1,955,969 photos uploaded!

WunderBlog® & News

Nearby

Air Quality

  Air Quality AQ Index Pollutant
Not available.

Snow Depth

Station Depth Elevation

Earthquake Activity

City Distance Mag. Time & Date
Minimum magnitude displayed is 2.5.

Coastal Water Temperatures

Place Temperature

Stations

Nearby Weather Stations

Station Location Temp. Windchill Dew Point Humidity Wind Precip. Elev Updated Type
                   

Watches & Warnings

There are currently no watches in effect.